Time;durP1;ratioP1;P1;durP2;ratioP2;P2;SDS_P1;SDS_P2;PMS_P1;PMS_P2;Temp;Humidity;BMP_temperature;BMP_pressure;BME280_temperature;BME280_humidity;BME280_pressure;Samples;Min_cycle;Max_cycle;Signal;HPM_P1;HPM_P2
2021/06/29 00:02:25;;;;;;;3.37;1.63;;;;;;;22.33;63.26;97710.06;8210228;28;20212;-69
2021/06/29 00:06:28;;;;;;;3.93;1.40;;;;;;;22.36;62.91;97720.31;8184941;29;20234;-69
2021/06/29 00:10:31;;;;;;;4.60;1.50;;;;;;;22.21;63.51;97695.38;8193248;29;20497;-69
2021/06/29 00:14:35;;;;;;;3.00;1.60;;;;;;;22.10;64.28;97682.41;8216723;29;20357;-69
2021/06/29 00:18:38;;;;;;;2.60;1.40;;;;;;;22.16;64.10;97681.81;8216436;29;20379;-69
2021/06/29 00:22:41;;;;;;;3.00;1.53;;;;;;;22.30;63.68;97670.78;8216583;29;20543;-69
2021/06/29 00:26:44;;;;;;;4.47;1.60;;;;;;;22.24;63.55;97671.34;8216492;29;20208;-69
2021/06/29 00:30:49;;;;;;;3.07;1.30;;;;;;;22.31;63.16;97661.88;8216495;29;20216;-69
2021/06/29 00:34:52;;;;;;;3.10;1.70;;;;;;;22.33;63.06;97657.31;8216491;29;20271;-69
2021/06/29 00:38:54;;;;;;;2.27;1.60;;;;;;;22.05;64.04;97670.50;8217092;28;20241;-69
2021/06/29 00:42:57;;;;;;;4.17;1.77;;;;;;;22.22;63.47;97666.22;8223137;29;20229;-69
2021/06/29 00:47:01;;;;;;;4.80;1.70;;;;;;;22.15;64.12;97656.44;8223154;29;20533;-69
2021/06/29 00:51:04;;;;;;;4.93;1.90;;;;;;;22.20;64.06;97673.47;8222824;29;20215;-69
2021/06/29 00:55:08;;;;;;;5.67;2.30;;;;;;;22.12;64.29;97705.00;8222625;29;20210;-69
2021/06/29 00:59:10;;;;;;;3.60;2.03;;;;;;;22.32;64.30;97700.47;8222440;29;20235;-69
2021/06/29 01:03:14;;;;;;;3.93;2.00;;;;;;;22.42;64.52;97703.88;8245017;28;20202;-69
2021/06/29 01:07:17;;;;;;;4.90;1.90;;;;;;;22.33;63.80;97712.72;8254182;28;20225;-68
2021/06/29 01:11:20;;;;;;;5.20;1.70;;;;;;;22.42;64.45;97735.53;8254156;28;20269;-69
2021/06/29 01:15:24;;;;;;;6.23;1.80;;;;;;;22.33;63.85;97739.09;8254244;28;20214;-69
2021/06/29 01:19:36;;;;;;;4.40;1.90;;;;;;;22.24;64.38;97753.13;8254127;28;20232;-69
2021/06/29 01:23:42;;;;;;;5.07;1.97;;;;;;;22.16;64.67;97750.34;8253843;28;20204;-69
2021/06/29 01:27:53;;;;;;;3.70;2.07;;;;;;;22.22;64.45;97755.06;8253836;28;20216;-69
2021/06/29 01:31:56;;;;;;;10.30;2.03;;;;;;;22.14;64.47;97752.31;8253800;28;20494;-69
2021/06/29 01:35:59;;;;;;;4.70;2.23;;;;;;;21.73;65.63;97751.81;8253542;28;20212;-69
2021/06/29 01:40:07;;;;;;;5.10;2.50;;;;;;;22.20;64.23;97736.75;8253522;28;20302;-69
2021/06/29 01:44:14;;;;;;;4.33;2.47;;;;;;;21.88;65.25;97725.81;8253673;28;20305;-69
2021/06/29 01:48:23;;;;;;;3.93;2.30;;;;;;;21.99;65.17;97717.69;8253573;28;20283;-69
2021/06/29 01:52:26;;;;;;;4.43;2.30;;;;;;;21.84;65.39;97715.56;8251725;28;20198;-69
2021/06/29 01:56:32;;;;;;;4.30;2.50;;;;;;;21.95;64.79;97726.88;8253452;28;20207;-69
2021/06/29 02:00:35;;;;;;;4.23;2.60;;;;;;;21.73;65.98;97726.28;8253524;28;20198;-69
2021/06/29 02:04:38;;;;;;;6.00;2.70;;;;;;;21.94;65.96;97733.97;8253279;28;20203;-69
2021/06/29 02:08:40;;;;;;;4.90;2.73;;;;;;;21.92;65.41;97730.63;8253008;28;20445;-69
2021/06/29 02:12:45;;;;;;;7.00;3.13;;;;;;;21.96;65.16;97734.63;8252893;28;20252;-69
2021/06/29 02:16:48;;;;;;;6.17;2.97;;;;;;;21.91;65.39;97725.50;8252877;28;20438;-69
2021/06/29 02:20:51;;;;;;;8.93;3.17;;;;;;;21.73;66.16;97710.47;8252602;28;20260;-69
2021/06/29 02:24:54;;;;;;;4.37;2.87;;;;;;;21.54;66.04;97695.53;8252509;28;20388;-69
2021/06/29 02:28:58;;;;;;;5.20;2.50;;;;;;;21.79;65.04;97688.78;8252821;28;20226;-69
2021/06/29 02:33:01;;;;;;;4.73;2.73;;;;;;;21.83;65.43;97686.69;8252954;28;20203;-69
2021/06/29 02:37:04;;;;;;;6.30;2.60;;;;;;;21.67;65.36;97687.34;8252447;28;20226;-69
2021/06/29 02:41:07;;;;;;;6.50;2.50;;;;;;;21.63;65.78;97684.16;8252023;28;20214;-69
2021/06/29 02:45:18;;;;;;;4.73;2.97;;;;;;;21.89;64.73;97686.09;8252049;28;20524;-69
2021/06/29 02:49:20;;;;;;;11.17;3.03;;;;;;;21.82;64.66;97687.69;8251934;28;20211;-69
2021/06/29 02:53:23;;;;;;;5.43;2.53;;;;;;;21.99;64.08;97688.69;8251770;28;20373;-69
2021/06/29 02:57:26;;;;;;;5.33;2.87;;;;;;;21.94;64.34;97681.22;8251610;28;20231;-67
2021/06/29 03:01:30;;;;;;;5.40;2.77;;;;;;;21.99;64.39;97691.31;8251627;28;20221;-66
2021/06/29 03:05:33;;;;;;;8.93;3.20;;;;;;;22.00;64.14;97693.81;8251738;28;20230;-66
2021/06/29 03:09:36;;;;;;;4.50;3.20;;;;;;;22.04;63.77;97686.44;8251799;28;20215;-67
2021/06/29 03:13:39;;;;;;;7.23;2.70;;;;;;;21.97;64.17;97694.13;8251827;28;20202;-69
2021/06/29 03:17:43;;;;;;;4.67;2.90;;;;;;;22.02;63.66;97683.13;8251088;28;20316;-69
2021/06/29 03:21:46;;;;;;;4.53;2.87;;;;;;;21.87;64.08;97677.50;8251215;28;20244;-67
2021/06/29 03:25:49;;;;;;;5.63;2.87;;;;;;;21.94;64.08;97689.13;8251010;28;20215;-67
2021/06/29 03:29:52;;;;;;;7.43;3.00;;;;;;;21.94;63.47;97696.22;8250723;28;20263;-67
2021/06/29 03:33:56;;;;;;;8.00;3.23;;;;;;;21.91;63.41;97696.50;8250433;28;20383;-67
2021/06/29 03:37:58;;;;;;;7.10;2.93;;;;;;;21.94;63.64;97697.06;8250448;28;20231;-68
2021/06/29 03:42:01;;;;;;;4.33;3.13;;;;;;;21.88;63.87;97728.44;8250426;28;20203;-68
2021/06/29 03:46:05;;;;;;;5.33;3.17;;;;;;;21.94;63.57;97726.03;8250355;28;20209;-68
2021/06/29 03:50:10;;;;;;;8.50;3.30;;;;;;;21.92;63.66;97738.53;8250502;28;20207;-68
2021/06/29 03:54:13;;;;;;;6.60;3.00;;;;;;;21.86;63.39;97741.78;8250487;28;20206;-67
2021/06/29 03:58:16;;;;;;;5.17;2.87;;;;;;;21.77;63.10;97745.25;8250012;28;20233;-68
2021/06/29 04:02:19;;;;;;;5.73;2.60;;;;;;;21.86;62.76;97739.13;8250142;28;20206;-68
2021/06/29 04:06:24;;;;;;;4.13;2.70;;;;;;;21.89;63.18;97733.56;8249931;28;20224;-68
2021/06/29 04:10:26;;;;;;;6.30;2.60;;;;;;;21.89;63.30;97732.72;8249684;28;20248;-67
2021/06/29 04:14:29;;;;;;;4.20;2.40;;;;;;;21.82;62.99;97737.75;8251522;28;20227;-67
2021/06/29 04:18:32;;;;;;;5.20;2.50;;;;;;;21.87;63.39;97740.78;8256623;28;20230;-68
2021/06/29 04:22:37;;;;;;;6.03;2.30;;;;;;;21.89;62.89;97736.19;8256375;28;20226;-68
2021/06/29 04:26:40;;;;;;;4.40;2.20;;;;;;;21.90;63.40;97737.03;8256599;28;20204;-68
2021/06/29 04:30:43;;;;;;;9.63;3.10;;;;;;;21.84;62.61;97736.63;8256013;28;20217;-68
2021/06/29 04:34:46;;;;;;;5.87;2.70;;;;;;;21.88;63.28;97737.19;8256273;28;20236;-68
2021/06/29 04:38:50;;;;;;;7.73;3.30;;;;;;;21.80;63.05;97739.69;8255968;28;20243;-68
2021/06/29 04:42:53;;;;;;;6.60;2.87;;;;;;;21.72;63.52;97736.94;8255487;28;20206;-68
2021/06/29 04:46:57;;;;;;;4.20;3.27;;;;;;;21.76;63.54;97714.59;8254392;28;20212;-68
2021/06/29 04:51:00;;;;;;;6.60;2.80;;;;;;;21.76;63.96;97709.34;8255242;28;20246;-69
2021/06/29 04:55:05;;;;;;;5.93;3.00;;;;;;;21.78;64.35;97716.13;8254860;28;20204;-68
2021/06/29 04:59:08;;;;;;;6.00;3.07;;;;;;;21.89;63.50;97727.47;8254894;28;20240;-67
2021/06/29 05:03:11;;;;;;;9.07;3.30;;;;;;;21.88;62.65;97729.28;8254455;28;20210;-67
2021/06/29 05:07:14;;;;;;;6.37;3.03;;;;;;;21.89;64.01;97724.81;8254513;28;20420;-68
2021/06/29 05:11:18;;;;;;;7.20;3.10;;;;;;;21.98;63.52;97718.69;8239360;28;20231;-67
2021/06/29 05:15:21;;;;;;;10.47;3.73;;;;;;;21.95;64.02;97732.13;8221584;29;20314;-67
2021/06/29 05:19:24;;;;;;;4.03;3.10;;;;;;;22.05;64.30;97739.03;8222042;28;20232;-67
2021/06/29 05:23:26;;;;;;;5.20;3.17;;;;;;;22.09;63.81;97757.22;8221788;28;20209;-69
2021/06/29 05:27:31;;;;;;;4.23;3.50;;;;;;;22.12;63.43;97763.00;8221079;28;20200;-68
2021/06/29 05:31:33;;;;;;;8.53;3.50;;;;;;;22.29;62.83;97755.34;8221726;28;20267;-69
2021/06/29 05:35:36;;;;;;;4.17;3.50;;;;;;;22.25;64.37;97752.97;8220959;28;20196;-69
2021/06/29 05:39:39;;;;;;;8.23;3.67;;;;;;;22.34;63.54;97732.00;8220867;28;20234;-69
2021/06/29 05:43:43;;;;;;;6.33;3.50;;;;;;;22.41;63.29;97736.53;8208147;28;20498;-69
2021/06/29 05:47:47;;;;;;;8.37;3.70;;;;;;;22.37;64.00;97727.25;8196343;29;20200;-69
2021/06/29 05:51:50;;;;;;;5.43;3.90;;;;;;;22.22;63.94;97733.97;8204789;28;20200;-69
2021/06/29 05:55:53;;;;;;;6.90;3.83;;;;;;;22.29;63.65;97740.34;8207232;28;20400;-68
2021/06/29 05:59:58;;;;;;;8.30;3.27;;;;;;;22.37;62.66;97753.63;8215454;28;20229;-69
2021/06/29 06:04:01;;;;;;;7.27;3.83;;;;;;;22.44;63.29;97767.03;8217935;29;20209;-69
2021/06/29 06:08:04;;;;;;;6.27;3.40;;;;;;;22.54;62.19;97756.44;8220166;28;20548;-69
2021/06/29 06:12:08;;;;;;;10.33;3.77;;;;;;;22.57;62.40;97764.06;8241031;28;20230;-69
2021/06/29 06:16:12;;;;;;;5.83;3.53;;;;;;;22.43;63.10;97776.78;8252258;28;20284;-69
2021/06/29 06:20:15;;;;;;;7.80;3.40;;;;;;;22.50;63.40;97773.53;8251883;28;20237;-69
2021/06/29 06:24:18;;;;;;;5.83;3.40;;;;;;;22.51;62.04;97768.13;8250446;28;20201;-69
2021/06/29 06:28:21;;;;;;;6.00;3.43;;;;;;;22.46;62.24;97767.72;8252594;28;20262;-69
2021/06/29 06:32:25;;;;;;;8.93;3.43;;;;;;;22.55;61.74;97763.38;8248844;28;20197;-69
2021/06/29 06:36:28;;;;;;;7.70;3.40;;;;;;;22.79;61.98;97739.03;8238308;28;20199;-69
2021/06/29 06:40:31;;;;;;;4.97;3.30;;;;;;;22.78;62.94;97754.03;8251306;28;20222;-69
2021/06/29 06:44:34;;;;;;;5.27;3.37;;;;;;;23.06;61.04;97759.28;8251767;28;20197;-69
2021/06/29 06:48:38;;;;;;;5.27;3.60;;;;;;;23.61;59.41;97747.66;8251714;28;20368;-69
2021/06/29 06:52:42;;;;;;;8.70;4.00;;;;;;;23.07;60.51;97723.97;8252568;28;20217;-69
2021/06/29 06:56:44;;;;;;;5.53;3.93;;;;;;;22.82;61.01;97720.25;8251846;28;20209;-69
2021/06/29 07:00:47;;;;;;;8.77;4.00;;;;;;;22.68;60.81;97721.63;8251684;28;20227;-69
2021/06/29 07:04:52;;;;;;;6.10;3.60;;;;;;;23.30;59.87;97711.09;8252192;28;20203;-69
2021/06/29 07:08:55;;;;;;;4.90;2.60;;;;;;;23.52;58.36;97715.03;8234592;28;20209;-69
2021/06/29 07:13:02;;;;;;;7.27;3.90;;;;;;;23.54;58.75;97714.88;8195207;29;20226;-70
2021/06/29 07:17:05;;;;;;;5.43;3.97;;;;;;;23.34;58.54;97711.59;8219148;29;20427;-69
2021/06/29 07:21:10;;;;;;;5.07;3.57;;;;;;;23.69;57.99;97723.06;8219159;29;20231;-69
2021/06/29 07:25:13;;;;;;;6.60;4.40;;;;;;;23.80;58.67;97718.38;8219056;29;20226;-69
2021/06/29 07:29:16;;;;;;;4.87;4.00;;;;;;;22.89;60.82;97712.56;8219436;29;20218;-69
2021/06/29 07:33:19;;;;;;;5.37;3.90;;;;;;;22.89;60.78;97704.66;8219039;29;20240;-69
2021/06/29 07:37:23;;;;;;;8.20;3.73;;;;;;;23.00;61.43;97693.84;8219084;29;20223;-69
2021/06/29 07:41:26;;;;;;;5.77;2.90;;;;;;;23.18;59.57;97685.91;8219026;29;20237;-69
2021/06/29 07:45:29;;;;;;;4.80;3.30;;;;;;;22.88;60.81;97674.75;8219135;29;20384;-69
2021/06/29 07:49:32;;;;;;;4.40;3.10;;;;;;;22.91;59.91;97663.91;8218143;28;20506;-69
2021/06/29 07:53:36;;;;;;;7.40;3.40;;;;;;;22.90;61.54;97643.75;8218702;29;20203;-69
2021/06/29 07:57:39;;;;;;;7.53;3.03;;;;;;;22.77;60.10;97660.00;8218710;29;20238;-69
2021/06/29 08:01:42;;;;;;;4.10;3.53;;;;;;;22.87;61.58;97627.41;8218364;29;20231;-69
2021/06/29 08:05:45;;;;;;;6.20;3.93;;;;;;;22.84;60.80;97628.53;8217840;29;20301;-69
2021/06/29 08:09:49;;;;;;;8.80;4.13;;;;;;;22.89;59.95;97631.56;8220485;28;20496;-69
2021/06/29 08:13:52;;;;;;;11.40;3.93;;;;;;;23.16;60.88;97635.06;8249999;28;20342;-69
2021/06/29 08:17:55;;;;;;;4.37;2.80;;;;;;;23.43;59.61;97629.59;8249881;28;20415;-67
2021/06/29 08:21:58;;;;;;;9.07;3.67;;;;;;;23.98;57.22;97616.94;8248147;28;20245;-68
2021/06/29 08:26:03;;;;;;;7.23;3.07;;;;;;;24.51;57.55;97607.81;8249976;28;20380;-68
2021/06/29 08:30:08;;;;;;;6.67;3.13;;;;;;;24.97;55.90;97618.69;8250003;28;20379;-68
2021/06/29 08:34:10;;;;;;;5.90;4.20;;;;;;;25.25;54.06;97634.25;8249449;28;20211;-67
2021/06/29 08:38:14;;;;;;;6.57;3.40;;;;;;;26.10;53.25;97641.59;8250034;28;20202;-68
2021/06/29 08:42:20;;;;;;;6.37;2.93;;;;;;;26.16;52.38;97660.44;8249443;28;20251;-67
2021/06/29 08:46:23;;;;;;;5.67;2.87;;;;;;;25.67;53.90;97653.53;8249519;28;20210;-68
2021/06/29 08:50:30;;;;;;;9.53;3.03;;;;;;;25.75;53.42;97642.88;8249353;28;20213;-68
2021/06/29 08:54:33;;;;;;;7.97;2.57;;;;;;;25.74;52.64;97639.41;8248420;28;20199;-68
2021/06/29 08:58:37;;;;;;;5.83;3.00;;;;;;;27.17;48.87;97640.78;8248875;28;20586;-68
2021/06/29 09:02:41;;;;;;;7.70;2.73;;;;;;;27.18;48.30;97631.78;8254435;28;20233;-68
2021/06/29 09:06:44;;;;;;;5.33;2.53;;;;;;;27.86;48.73;97621.91;8255507;28;20233;-69
2021/06/29 09:11:08;;;;;;;4.03;2.40;;;;;;;26.76;49.52;97624.41;8255087;28;20239;-69
2021/06/29 09:15:41;;;;;;;5.50;2.50;;;;;;;26.89;50.39;97619.28;8222887;29;20213;-69
2021/06/29 09:19:45;;;;;;;5.43;2.10;;;;;;;26.32;51.44;97621.34;8222845;29;20231;-68
2021/06/29 09:23:49;;;;;;;4.23;2.07;;;;;;;26.24;50.63;97624.06;8222886;29;20303;-70
2021/06/29 09:27:52;;;;;;;4.60;2.10;;;;;;;26.49;49.54;97632.69;8222338;29;20252;-68
2021/06/29 09:31:56;;;;;;;10.93;2.57;;;;;;;26.44;50.64;97615.66;8253013;28;20209;-74
2021/06/29 09:36:02;;;;;;;10.67;2.23;;;;;;;26.44;51.31;97613.00;8253921;28;20205;-74
2021/06/29 09:40:10;;;;;;;9.07;2.57;;;;;;;26.41;51.00;97621.31;8254462;28;20385;-75
2021/06/29 09:44:15;;;;;;;5.17;2.00;;;;;;;26.53;50.31;97609.28;8254665;28;20210;-76
2021/06/29 09:48:19;;;;;;;5.77;2.10;;;;;;;26.33;49.43;97603.59;8254437;28;20206;-73
2021/06/29 09:52:33;;;;;;;10.03;2.67;;;;;;;26.91;48.68;97602.16;8253881;28;20223;-73
2021/06/29 09:56:38;;;;;;;4.53;1.60;;;;;;;27.64;44.70;97585.59;8252800;28;20203;-74
2021/06/29 10:00:42;;;;;;;3.00;1.57;;;;;;;27.93;44.48;97584.78;8239304;28;20319;-73
2021/06/29 10:04:45;;;;;;;1.80;1.20;;;;;;;28.71;42.96;97578.75;8239101;28;20200;-73
2021/06/29 10:08:50;;;;;;;7.23;2.20;;;;;;;28.94;42.35;97574.03;8236416;28;20239;-73
2021/06/29 10:12:53;;;;;;;1.93;1.43;;;;;;;29.08;43.16;97556.25;8247182;28;20406;-73
2021/06/29 10:16:56;;;;;;;7.63;2.33;;;;;;;27.87;44.76;97553.53;8252302;28;20488;-73
2021/06/29 10:21:01;;;;;;;2.83;1.70;;;;;;;27.34;45.64;97556.41;8252173;28;20242;-72
2021/06/29 10:25:07;;;;;;;2.57;1.60;;;;;;;27.18;45.15;97561.88;8252585;28;20207;-72
2021/06/29 10:29:11;;;;;;;1.90;1.30;;;;;;;28.59;43.10;97557.16;8252795;28;20213;-73
2021/06/29 10:33:15;;;;;;;3.17;1.30;;;;;;;29.08;41.04;97555.44;8252820;28;20272;-73
2021/06/29 10:37:18;;;;;;;5.20;1.60;;;;;;;28.90;40.86;97542.59;8252517;28;20310;-72
2021/06/29 10:41:25;;;;;;;5.23;1.63;;;;;;;28.94;38.54;97538.53;8252850;28;20266;-74
2021/06/29 10:45:33;;;;;;;5.80;1.53;;;;;;;29.36;39.45;97540.25;8252861;28;20213;-74
2021/06/29 10:49:39;;;;;;;3.43;1.47;;;;;;;29.22;38.94;97527.84;8252878;28;20203;-74
2021/06/29 10:53:44;;;;;;;6.53;1.73;;;;;;;27.99;41.74;97524.66;8252891;28;20205;-75
2021/06/29 10:57:49;;;;;;;3.70;1.80;;;;;;;27.64;43.54;97522.59;8253033;28;20212;-74
2021/06/29 11:01:55;;;;;;;1.27;1.17;;;;;;;27.77;41.61;97516.59;8251982;28;20236;-74
2021/06/29 11:06:01;;;;;;;3.43;1.47;;;;;;;27.41;43.15;97506.78;8251873;28;20408;-74
2021/06/29 11:10:08;;;;;;;3.87;1.70;;;;;;;27.86;41.12;97504.00;8251628;28;20360;-74
2021/06/29 11:14:28;;;;;;;1.63;1.40;;;;;;;28.36;40.94;97491.59;8251886;28;20213;-75
2021/06/29 11:18:50;;;;;;;4.10;1.40;;;;;;;28.27;41.17;97492.75;8251991;28;20206;-74
2021/06/29 11:22:58;;;;;;;4.70;1.73;;;;;;;28.91;40.24;97494.44;8251445;28;20241;-74
2021/06/29 11:27:01;;;;;;;7.20;1.90;;;;;;;29.02;40.03;97490.44;8251973;28;20209;-75
2021/06/29 11:31:25;;;;;;;2.30;1.53;;;;;;;28.75;37.63;97490.28;8251756;28;20204;-74
2021/06/29 11:35:38;;;;;;;3.37;1.50;;;;;;;28.78;37.42;97470.41;8251246;28;20211;-75
2021/06/29 11:39:41;;;;;;;1.50;1.40;;;;;;;29.10;37.61;97470.78;8251320;28;20367;-73
2021/06/29 11:43:44;;;;;;;2.10;1.63;;;;;;;29.34;37.22;97464.97;8251476;28;20235;-74
2021/06/29 11:47:48;;;;;;;5.13;1.53;;;;;;;29.30;38.14;97460.22;8251387;28;20215;-72
2021/06/29 11:51:54;;;;;;;4.27;1.50;;;;;;;29.11;37.29;97454.59;8237533;28;20509;-72
2021/06/29 11:55:56;;;;;;;2.33;1.50;;;;;;;29.37;39.02;97432.53;8251122;28;20205;-73
2021/06/29 12:00:01;;;;;;;1.93;1.40;;;;;;;29.76;38.08;97427.53;8251278;28;20344;-74
2021/06/29 12:04:10;;;;;;;1.90;1.53;;;;;;;29.99;37.02;97421.81;8251005;28;20450;-73
2021/06/29 12:08:14;;;;;;;2.27;1.60;;;;;;;29.59;36.07;97408.41;8251281;28;20229;-73
2021/06/29 12:12:19;;;;;;;3.57;1.50;;;;;;;30.18;37.76;97404.16;8251097;28;20471;-74
2021/06/29 12:16:26;;;;;;;3.07;1.63;;;;;;;30.09;35.12;97400.03;8251453;28;20214;-74
2021/06/29 12:20:33;;;;;;;2.23;1.70;;;;;;;29.95;37.20;97385.84;8251447;28;20252;-74
2021/06/29 12:24:36;;;;;;;1.97;1.60;;;;;;;29.69;35.75;97382.13;8251352;28;20220;-73
2021/06/29 12:28:40;;;;;;;2.50;1.70;;;;;;;29.69;36.92;97365.31;8250661;28;20202;-69
2021/06/29 12:32:43;;;;;;;2.60;1.50;;;;;;;29.97;38.16;97363.28;8250856;28;20500;-69
2021/06/29 12:36:48;;;;;;;2.50;1.43;;;;;;;29.72;35.33;97356.88;8254344;28;20473;-69
2021/06/29 12:40:53;;;;;;;4.00;1.40;;;;;;;29.70;35.26;97348.25;8256993;28;20230;-70
2021/06/29 12:44:56;;;;;;;3.27;1.50;;;;;;;29.59;36.00;97344.38;8256890;28;20203;-71
2021/06/29 12:49:01;;;;;;;2.43;1.60;;;;;;;29.35;36.34;97341.25;8257141;28;20481;-70
2021/06/29 12:53:06;;;;;;;2.60;1.47;;;;;;;29.88;38.25;97331.69;8257022;28;20212;-71
2021/06/29 12:57:13;;;;;;;1.77;1.10;;;;;;;29.96;34.92;97339.47;8256919;28;20512;-71
2021/06/29 13:01:17;;;;;;;2.07;1.40;;;;;;;30.19;34.68;97326.47;8256686;28;20229;-71
2021/06/29 13:05:22;;;;;;;4.43;1.50;;;;;;;30.11;36.01;97324.03;8256564;28;20315;-71
2021/06/29 13:09:35;;;;;;;4.03;1.43;;;;;;;30.63;35.47;97324.13;8256443;28;20209;-71
2021/06/29 13:13:38;;;;;;;3.37;1.70;;;;;;;30.52;33.96;97317.59;8256441;28;20222;-71
2021/06/29 13:17:52;;;;;;;4.40;1.40;;;;;;;29.83;34.24;97310.94;8255837;28;20521;-71
2021/06/29 13:21:56;;;;;;;2.67;1.57;;;;;;;30.26;36.01;97318.47;8255724;28;20240;-72
2021/06/29 13:26:08;;;;;;;1.67;1.17;;;;;;;30.39;36.19;97320.31;8254750;28;20198;-71
2021/06/29 13:30:15;;;;;;;2.77;1.27;;;;;;;30.47;33.27;97322.75;8254396;28;20267;-70
2021/06/29 13:34:23;;;;;;;3.87;1.30;;;;;;;30.56;34.09;97313.47;8255244;28;20217;-70
2021/06/29 13:38:25;;;;;;;1.70;1.30;;;;;;;30.69;34.92;97306.41;8254473;28;20210;-72
2021/06/29 13:42:30;;;;;;;2.50;1.10;;;;;;;30.49;33.68;97285.97;8254253;28;20231;-73
2021/06/29 13:46:32;;;;;;;4.37;1.30;;;;;;;29.96;36.01;97288.75;8254308;28;20387;-72
2021/06/29 13:50:37;;;;;;;1.40;1.23;;;;;;;29.39;36.30;97275.81;8254517;28;20206;-75
2021/06/29 13:54:40;;;;;;;2.00;1.20;;;;;;;30.16;36.04;97254.81;8253798;28;20209;-71
2021/06/29 13:58:51;;;;;;;1.67;1.20;;;;;;;30.01;33.13;97246.25;8253494;28;20196;-71
2021/06/29 14:03:07;;;;;;;1.93;1.30;;;;;;;30.26;35.41;97249.03;8254211;28;20233;-71
2021/06/29 14:07:12;;;;;;;1.10;1.00;;;;;;;29.88;35.85;97255.09;8254333;28;20518;-71
2021/06/29 14:11:16;;;;;;;2.00;1.13;;;;;;;29.89;35.82;97247.91;8254163;28;20247;-71
2021/06/29 14:15:20;;;;;;;1.50;1.20;;;;;;;29.74;35.64;97250.81;8254007;28;20208;-71
2021/06/29 14:19:24;;;;;;;1.83;1.00;;;;;;;29.60;35.40;97245.44;8253781;28;20448;-71
2021/06/29 14:23:27;;;;;;;2.50;0.90;;;;;;;29.53;34.63;97233.16;8253598;28;20227;-71
2021/06/29 14:27:30;;;;;;;2.07;1.30;;;;;;;29.01;35.81;97243.56;8253473;28;20206;-71
2021/06/29 14:31:35;;;;;;;3.53;0.87;;;;;;;29.02;36.54;97261.22;8253146;28;20206;-71
2021/06/29 14:35:38;;;;;;;3.80;1.30;;;;;;;28.82;38.21;97267.31;8253568;28;20457;-71
2021/06/29 14:39:40;;;;;;;1.70;1.20;;;;;;;28.68;36.69;97262.16;8253157;28;20211;-71
2021/06/29 14:43:44;;;;;;;2.37;1.23;;;;;;;28.70;37.43;97268.09;8253457;28;20240;-71
2021/06/29 14:47:50;;;;;;;1.40;1.07;;;;;;;28.54;37.74;97282.56;8253964;28;20209;-72
2021/06/29 14:51:53;;;;;;;2.03;1.10;;;;;;;28.36;37.44;97283.09;8252322;28;20503;-71
2021/06/29 14:55:56;;;;;;;3.07;1.30;;;;;;;28.34;37.70;97279.81;8251526;28;20394;-72
2021/06/29 14:59:59;;;;;;;1.40;1.20;;;;;;;28.27;38.09;97269.97;8251141;28;20231;-72
2021/06/29 15:04:03;;;;;;;1.30;1.20;;;;;;;28.16;39.44;97283.81;8242416;28;20235;-72
2021/06/29 15:08:08;;;;;;;1.33;1.17;;;;;;;28.06;39.75;97292.16;8236300;28;20222;-71
2021/06/29 15:12:11;;;;;;;2.93;1.17;;;;;;;27.91;39.75;97296.75;8218806;29;20262;-71
2021/06/29 15:16:14;;;;;;;2.10;1.40;;;;;;;27.81;40.22;97301.56;8218837;29;20236;-71
2021/06/29 15:20:20;;;;;;;1.70;1.20;;;;;;;27.70;40.45;97316.22;8218422;29;20211;-72
2021/06/29 15:24:23;;;;;;;4.00;1.43;;;;;;;27.32;39.73;97327.13;8234508;28;20500;-72
2021/06/29 15:28:26;;;;;;;3.70;1.30;;;;;;;27.01;40.85;97338.84;8250790;28;20262;-72
2021/06/29 15:32:28;;;;;;;12.20;1.60;;;;;;;26.18;41.02;97432.88;8250096;28;20215;-72
2021/06/29 15:36:33;;;;;;;16.10;1.30;;;;;;;24.65;41.73;97463.34;8250412;28;20209;-73
2021/06/29 15:40:36;;;;;;;9.57;1.00;;;;;;;24.38;46.32;97491.81;8249719;28;20229;-71
2021/06/29 15:44:39;;;;;;;13.00;1.90;;;;;;;23.29;50.78;97482.25;8249107;28;20228;-72
2021/06/29 15:48:41;;;;;;;8.30;1.80;;;;;;;22.82;53.02;97507.25;8249965;28;20219;-72
2021/06/29 15:52:46;;;;;;;8.57;1.40;;;;;;;23.34;52.50;97506.38;8249900;28;20220;-70
2021/06/29 15:56:49;;;;;;;6.67;1.67;;;;;;;22.90;54.80;97506.47;8249502;28;20210;-70
2021/06/29 16:00:52;;;;;;;7.53;1.73;;;;;;;22.81;54.25;97510.91;8247674;28;20270;-70
2021/06/29 16:04:55;;;;;;;5.50;1.30;;;;;;;22.44;54.32;97490.03;8248714;28;20230;-69
2021/06/29 16:08:59;;;;;;;4.23;1.03;;;;;;;22.55;53.91;97491.59;8248279;28;20213;-69
2021/06/29 16:13:02;;;;;;;6.63;0.90;;;;;;;22.27;54.89;97489.09;8248214;28;20229;-69
2021/06/29 16:17:05;;;;;;;2.87;0.90;;;;;;;22.24;55.41;97506.03;8248497;28;20202;-71
2021/06/29 16:21:08;;;;;;;2.53;0.60;;;;;;;21.93;55.14;97521.41;8248538;28;20237;-70
2021/06/29 16:25:13;;;;;;;2.30;0.70;;;;;;;21.87;54.77;97532.53;8248971;28;20543;-70
2021/06/29 16:29:16;;;;;;;3.90;0.90;;;;;;;21.64;55.03;97548.78;8246567;28;20198;-70
2021/06/29 16:33:19;;;;;;;4.23;0.90;;;;;;;21.65;56.51;97550.44;8248635;28;20479;-70
2021/06/29 16:37:22;;;;;;;2.03;0.90;;;;;;;21.87;56.32;97564.19;8248539;28;20200;-71
2021/06/29 16:41:26;;;;;;;3.83;1.00;;;;;;;21.89;54.56;97559.59;8248608;28;20195;-71
2021/06/29 16:45:29;;;;;;;8.20;1.30;;;;;;;21.93;56.07;97557.47;8245985;28;20248;-70
2021/06/29 16:49:33;;;;;;;3.33;1.13;;;;;;;22.17;57.16;97557.72;8244992;28;20209;-69
2021/06/29 16:53:38;;;;;;;1.87;0.90;;;;;;;21.88;55.03;97554.47;8251621;28;20223;-70
2021/06/29 16:57:43;;;;;;;3.10;1.10;;;;;;;21.97;58.34;97553.56;8248464;28;20197;-69
2021/06/29 17:01:46;;;;;;;2.67;0.93;;;;;;;21.80;57.85;97536.75;8248619;28;20197;-70
2021/06/29 17:05:49;;;;;;;3.37;1.13;;;;;;;21.90;57.83;97507.72;8248833;28;20248;-70
2021/06/29 17:09:52;;;;;;;3.73;1.40;;;;;;;22.12;58.43;97475.59;8248528;28;20297;-69
2021/06/29 17:14:00;;;;;;;5.37;1.10;;;;;;;22.49;58.58;97463.22;8246751;28;20216;-69
2021/06/29 17:18:04;;;;;;;4.20;1.07;;;;;;;22.12;58.69;97441.31;8249327;28;20273;-69
2021/06/29 17:22:07;;;;;;;3.37;0.80;;;;;;;22.06;55.14;97444.56;8251384;28;20403;-68
2021/06/29 17:26:10;;;;;;;8.70;1.20;;;;;;;22.48;56.92;97472.91;8254731;28;20261;-68
2021/06/29 17:30:16;;;;;;;6.23;1.00;;;;;;;22.51;54.10;97474.44;8254436;28;20215;-68
2021/06/29 17:34:18;;;;;;;4.03;0.93;;;;;;;22.48;56.02;97487.91;8256207;28;20214;-69
2021/06/29 17:38:21;;;;;;;3.60;0.80;;;;;;;22.28;55.96;97519.78;8253392;28;20203;-68
2021/06/29 17:42:24;;;;;;;3.07;1.17;;;;;;;22.25;55.32;97543.81;8253307;28;20245;-69
2021/06/29 17:46:28;;;;;;;2.93;0.90;;;;;;;22.18;55.74;97550.63;8253242;28;20205;-69
2021/06/29 17:50:31;;;;;;;2.80;0.90;;;;;;;22.30;55.77;97556.53;8253161;28;20202;-68
2021/06/29 17:54:34;;;;;;;6.77;0.90;;;;;;;22.37;56.61;97547.88;8253392;28;20551;-68
2021/06/29 17:58:37;;;;;;;14.83;1.30;;;;;;;22.68;55.03;97544.78;8252772;28;20202;-72
2021/06/29 18:02:41;;;;;;;15.10;1.50;;;;;;;22.64;55.66;97554.00;8252900;28;20226;-70
2021/06/29 18:06:44;;;;;;;5.70;1.40;;;;;;;22.53;56.04;97559.53;8253944;28;20325;-71
2021/06/29 18:10:47;;;;;;;4.23;1.00;;;;;;;22.33;55.48;97558.88;8253826;28;20237;-69
2021/06/29 18:14:52;;;;;;;5.13;1.00;;;;;;;22.15;56.43;97551.75;8253087;28;20201;-70
2021/06/29 18:18:56;;;;;;;5.17;1.00;;;;;;;22.47;56.65;97558.34;8253025;28;20229;-69
2021/06/29 18:22:59;;;;;;;9.20;1.63;;;;;;;22.35;54.89;97549.00;8253000;28;20222;-71
2021/06/29 18:27:05;;;;;;;5.37;1.20;;;;;;;22.59;55.75;97546.53;8253007;28;20257;-70
2021/06/29 18:31:09;;;;;;;4.57;1.17;;;;;;;22.04;54.74;97536.16;8250582;28;20280;-74
2021/06/29 18:35:14;;;;;;;3.33;1.20;;;;;;;22.42;55.75;97529.75;8251719;28;20205;-71
2021/06/29 18:39:16;;;;;;;4.40;0.90;;;;;;;22.09;54.98;97559.47;8252728;28;20214;-71
2021/06/29 18:43:19;;;;;;;2.80;1.00;;;;;;;21.27;57.76;97548.81;8252152;28;20221;-71
2021/06/29 18:47:22;;;;;;;1.60;0.90;;;;;;;20.96;58.75;97546.44;8252366;28;20212;-71
2021/06/29 18:51:26;;;;;;;2.87;0.90;;;;;;;20.94;57.96;97519.41;8252943;28;20205;-70
2021/06/29 18:55:29;;;;;;;2.17;0.77;;;;;;;20.85;58.56;97507.97;8252243;28;20215;-70
2021/06/29 18:59:32;;;;;;;1.97;1.00;;;;;;;20.80;58.48;97496.22;8250590;28;20195;-70
2021/06/29 19:03:35;;;;;;;4.53;1.23;;;;;;;21.01;57.80;97478.38;8251251;28;20229;-70
2021/06/29 19:07:39;;;;;;;4.07;0.80;;;;;;;21.05;57.88;97485.03;8251199;28;20422;-72
2021/06/29 19:11:42;;;;;;;3.90;1.13;;;;;;;20.63;59.22;97490.72;8251232;28;20241;-70